• Join FlightAware (Why Join?)
  • Login
  • US Flag 
01:48PM EDT


 

Airport Tracker/Info


-or-


 

Live Flight TrackerFlight Track Log ✈ N983CE ✈ 25-Apr-2013 ✈ KPTK - KJHW

Flight Track Log - Related Links

Times and Time Zones

All times are in EDT time to prevent confusion due to time zone crossing. See the N983CE flight status page for this flight to view local times or setup timezone preferences in your user account.

Time Position Orientation Groundspeed Altitude Reporting Facility
EDT Latitude Longitude Course Direction KTS MPH feet Rate Location/Type
07:21AM 42.6622 -83.4492 330° Northwest 162 186 2,100  Level Cleveland Center
07:22AM 42.7317 -83.5031 330° Northwest 288 331 5,000 1,620 Climbing Cleveland Center
07:23AM 42.7342 -83.4014 88° East 272 313 6,700 2,100 Climbing Cleveland Center
07:25AM 42.7142 -83.2819 103° East 283 326 9,600 2,640 Climbing Cleveland Center
07:26AM 42.6850 -83.1847 112° Southeast 319 367 12,300 2,700 Climbing Cleveland Center
07:27AM 42.6394 -83.0811 121° Southeast 326 375 15,100 2,940 Climbing Cleveland Center
07:28AM 42.5917 -82.9719 121° Southeast 332 382 18,200 2,820 Climbing Cleveland Center
07:29AM 42.5419 -82.8572 120° Southeast 344 396 20,800 1,380 Climbing Cleveland Center
07:30AM 42.4881 -82.7344 121° Southeast 362 417 21,000 60 Climbing Cleveland Center
07:31AM 42.4342 -82.6058 120° Southeast 377 434 21,000  Level Cleveland Center
07:32AM 42.3800 -82.4692 118° Southeast 398 458 21,000 720 Level Cleveland Center
07:33AM 42.3619 -82.3058 98° East 414 476 22,500 960 Climbing Cleveland Center
07:34AM 42.3542 -82.1172 93° East 436 502 23,000 240 Climbing Cleveland Center
07:35AM 42.3458 -81.9542 94° East 436 502 23,000  Level Cleveland Center
07:36AM 42.3411 -81.7967 92° East 429 494 23,000  Level Cleveland Center
07:37AM 42.3325 -81.6364 94° East 424 488 23,000  Level Cleveland Center
07:38AM 42.3253 -81.4761 93° East 424 488 23,000  Level Cleveland Center
07:39AM 42.3181 -81.3386 94° East 424 488 23,000  Level Cleveland Center
07:40AM 42.3106 -81.1811 94° East 424 488 23,000  Level Cleveland Center
07:41AM 42.3008 -81.0239 95° East 424 488 23,000 -540 Level Cleveland Center
07:42AM 42.2931 -80.8694 94° East 419 482 22,000 -1,380 Descending Cleveland Center
07:43AM 42.2872 -80.7150 93° East 419 482 20,300 -1,860 Descending Cleveland Center
07:44AM 42.2767 -80.5581 95° East 399 459 18,300 -4,680 Descending Cleveland Center
07:45AM 42.2683 -80.4175 95° East 382 440 11,000 -2,040 Descending Cleveland Center
07:46AM 42.2619 -80.2772 93° East 376 433 14,300 360 Climbing Cleveland Center
07:47AM 42.2531 -80.1428 95° East 365 420 11,800 -2,100 Descending Cleveland Center
07:48AM 42.2442 -80.0167 95° East 351 404 10,100 -1,560 Descending Cleveland Center
07:49AM 42.2414 -79.9017 92° East 326 375 8,700 -1,500 Descending Cleveland Center
07:50AM 42.2389 -79.8064 92° East 287 330 7,100 -1,800 Descending Cleveland Center
07:51AM 42.2339 -79.6942 93° East 277 319 5,200 -1,500 Descending Cleveland Center
07:52AM 42.2289 -79.5961 94° East 263 303 4,200 -1,020 Descending Cleveland Center
07:54AM 42.1951 -79.3635 95° East  Level FlightAware Approximate
08:01AM 42.1500 -79.2500 270° West  Level FlightAware Approximate
08:02AM 42.1534 -79.2580 270° West  Level Estimated
08:03AM 42.1500 -79.2500 270° West  Level FlightAware Approximate
08:04AM 42.1534 -79.2580 270° West  Level Estimated
08:05AM 42.1500 -79.2500 270° West  Level FlightAware Approximate
08:06AM 42.1534 -79.2580 270° West  Level Estimated